Time;durP1;ratioP1;P1;durP2;ratioP2;P2;SDS_P1;SDS_P2;PMS_P1;PMS_P2;Temp;Humidity;BMP_temperature;BMP_pressure;BME280_temperature;BME280_humidity;BME280_pressure;Samples;Min_cycle;Max_cycle;Signal;HPM_P1;HPM_P2
2022/08/25 00:02:05;;;;;;;0.30;0.30;;;;;;;;;;5052920;28;20029;-71
2022/08/25 00:04:31;;;;;;;0.30;0.30;;;;;;;;;;5017964;28;20121;-70
2022/08/25 00:06:56;;;;;;;0.20;0.20;;;;;;;;;;5053212;28;20099;-70
2022/08/25 00:09:23;;;;;;;0.57;0.57;;;;;;;;;;5052516;28;20074;-73
2022/08/25 00:11:49;;;;;;;0.20;0.20;;;;;;;;;;5052745;28;20400;-73
2022/08/25 00:14:17;;;;;;;1.50;1.40;;;;;;;;;;5052601;28;20029;-70
2022/08/25 00:16:42;;;;;;;0.20;0.20;;;;;;;;;;5034798;28;20396;-71
2022/08/25 00:19:13;;;;;;;0.20;0.20;;;;;;;;;;5052993;28;20029;-70
2022/08/25 00:21:39;;;;;;;0.32;0.32;;;;;;;;;;5053299;28;20438;-70
2022/08/25 00:24:07;;;;;;;0.60;0.60;;;;;;;;;;5034502;28;20036;-71
2022/08/25 00:26:33;;;;;;;0.10;0.10;;;;;;;;;;5052973;28;20036;-72
2022/08/25 00:28:58;;;;;;;0.20;0.20;;;;;;;;;;5053393;28;20408;-72
2022/08/25 00:31:24;;;;;;;0.20;0.20;;;;;;;;;;5052603;28;20021;-73
2022/08/25 00:33:50;;;;;;;0.28;0.28;;;;;;;;;;5054070;28;20039;-73
2022/08/25 00:36:17;;;;;;;1.02;0.93;;;;;;;;;;5053892;28;20025;-73
2022/08/25 00:38:43;;;;;;;2.25;2.15;;;;;;;;;;5038120;28;20040;-73
2022/08/25 00:41:11;;;;;;;0.28;0.28;;;;;;;;;;5052430;28;20056;-73
2022/08/25 00:43:39;;;;;;;0.70;0.70;;;;;;;;;;5052668;28;20538;-73
2022/08/25 00:46:06;;;;;;;0.40;0.40;;;;;;;;;;5052806;28;20064;-72
2022/08/25 00:48:32;;;;;;;1.35;0.57;;;;;;;;;;5051951;28;20033;-72
2022/08/25 00:50:59;;;;;;;0.20;0.20;;;;;;;;;;5052996;28;20033;-72
2022/08/25 00:53:26;;;;;;;0.22;0.22;;;;;;;;;;5052551;28;20053;-75
2022/08/25 00:55:52;;;;;;;0.20;0.20;;;;;;;;;;5034863;28;20036;-74
2022/08/25 00:58:20;;;;;;;0.40;0.40;;;;;;;;;;5052502;28;20140;-74
2022/08/25 01:00:48;;;;;;;0.52;0.40;;;;;;;;;;5034752;28;20037;-73
2022/08/25 01:03:14;;;;;;;0.40;0.40;;;;;;;;;;5052430;28;20119;-73
2022/08/25 01:05:41;;;;;;;0.30;0.30;;;;;;;;;;5052488;28;20108;-73
2022/08/25 01:08:08;;;;;;;0.40;0.40;;;;;;;;;;5052792;28;20440;-73
2022/08/25 01:10:39;;;;;;;0.45;0.45;;;;;;;;;;5034744;28;20059;-73
2022/08/25 01:13:19;;;;;;;0.30;0.30;;;;;;;;;;5052496;28;20075;-73
2022/08/25 01:15:45;;;;;;;0.20;0.20;;;;;;;;;;5018678;28;20090;-73
2022/08/25 01:18:11;;;;;;;0.20;0.20;;;;;;;;;;5056385;28;20021;-73
2022/08/25 01:20:36;;;;;;;0.20;0.20;;;;;;;;;;5055799;28;20036;-72
2022/08/25 01:23:02;;;;;;;0.20;0.20;;;;;;;;;;5055370;28;20040;-71
2022/08/25 01:25:46;;;;;;;0.30;0.30;;;;;;;;;;5055861;28;20040;-73
2022/08/25 01:28:12;;;;;;;0.63;0.63;;;;;;;;;;5038356;28;20040;-73
2022/08/25 01:30:38;;;;;;;0.20;0.20;;;;;;;;;;5038159;28;20585;-73
2022/08/25 01:33:04;;;;;;;0.20;0.20;;;;;;;;;;5055899;28;20033;-73
2022/08/25 01:35:30;;;;;;;0.10;0.10;;;;;;;;;;5055661;28;20029;-73
2022/08/25 01:37:55;;;;;;;0.20;0.20;;;;;;;;;;5055836;28;20036;-74
2022/08/25 01:40:21;;;;;;;0.25;0.25;;;;;;;;;;5055225;28;20045;-73
2022/08/25 01:43:05;;;;;;;0.55;0.55;;;;;;;;;;5038107;28;20025;-74
2022/08/25 01:45:32;;;;;;;0.30;0.30;;;;;;;;;;5054937;28;20041;-74
2022/08/25 01:47:57;;;;;;;2.03;1.88;;;;;;;;;;5055788;28;20025;-73
2022/08/25 01:50:23;;;;;;;0.28;0.28;;;;;;;;;;5055931;28;20035;-73
2022/08/25 01:52:49;;;;;;;3.72;3.38;;;;;;;;;;5055354;28;20071;-73
2022/08/25 01:55:15;;;;;;;0.55;0.55;;;;;;;;;;5037250;28;20033;-72
2022/08/25 01:57:40;;;;;;;0.20;0.20;;;;;;;;;;5055407;28;20017;-72
2022/08/25 02:00:11;;;;;;;0.20;0.20;;;;;;;;;;5055499;28;20025;-72
2022/08/25 02:02:38;;;;;;;0.28;0.28;;;;;;;;;;5055424;28;20033;-72
2022/08/25 02:05:04;;;;;;;0.20;0.20;;;;;;;;;;5037541;28;20568;-72
2022/08/25 02:07:30;;;;;;;0.20;0.20;;;;;;;;;;5055133;28;20029;-72
2022/08/25 02:09:56;;;;;;;0.22;0.22;;;;;;;;;;5037433;28;20021;-72
2022/08/25 02:12:22;;;;;;;0.17;0.17;;;;;;;;;;5054709;28;20075;-72
2022/08/25 02:14:48;;;;;;;0.20;0.20;;;;;;;;;;5054975;28;20191;-72
2022/08/25 02:17:13;;;;;;;0.20;0.20;;;;;;;;;;5037200;28;20091;-72
2022/08/25 02:19:39;;;;;;;0.20;0.20;;;;;;;;;;5055015;28;20055;-72
2022/08/25 02:22:05;;;;;;;0.35;0.35;;;;;;;;;;5054834;28;20028;-72
2022/08/25 02:24:31;;;;;;;2.47;1.50;;;;;;;;;;5055111;28;20040;-72
2022/08/25 02:26:57;;;;;;;0.20;0.20;;;;;;;;;;5036757;28;20514;-73
2022/08/25 02:29:23;;;;;;;0.20;0.20;;;;;;;;;;5037173;28;20040;-74
2022/08/25 02:31:49;;;;;;;0.20;0.20;;;;;;;;;;5055183;28;20028;-72
2022/08/25 02:34:14;;;;;;;0.20;0.20;;;;;;;;;;5054827;28;20090;-73
2022/08/25 02:36:40;;;;;;;0.20;0.20;;;;;;;;;;5053595;28;20033;-73
2022/08/25 02:39:07;;;;;;;0.20;0.20;;;;;;;;;;5054171;28;20025;-73
2022/08/25 02:41:33;;;;;;;0.40;0.40;;;;;;;;;;5054723;28;20435;-73
2022/08/25 02:44:00;;;;;;;0.32;0.32;;;;;;;;;;5054688;28;20391;-73
2022/08/25 02:46:26;;;;;;;0.20;0.20;;;;;;;;;;5054412;28;20090;-73
2022/08/25 02:48:52;;;;;;;0.10;0.10;;;;;;;;;;5020085;28;20020;-72
2022/08/25 02:51:18;;;;;;;0.20;0.20;;;;;;;;;;5036301;28;20033;-72
2022/08/25 02:53:45;;;;;;;0.20;0.20;;;;;;;;;;5054509;28;20021;-73
2022/08/25 02:56:11;;;;;;;0.20;0.20;;;;;;;;;;5036498;28;20476;-73
2022/08/25 02:58:38;;;;;;;0.20;0.20;;;;;;;;;;5054403;28;20519;-74
2022/08/25 03:01:04;;;;;;;0.20;0.20;;;;;;;;;;5020067;28;20052;-72
2022/08/25 03:03:30;;;;;;;0.30;0.30;;;;;;;;;;5049288;28;20068;-75
2022/08/25 03:05:56;;;;;;;0.55;0.55;;;;;;;;;;5050139;28;20458;-74
2022/08/25 03:08:22;;;;;;;0.20;0.20;;;;;;;;;;5050379;28;20384;-76
2022/08/25 03:10:48;;;;;;;0.32;0.32;;;;;;;;;;5050630;28;20056;-74
2022/08/25 03:13:13;;;;;;;3.10;1.70;;;;;;;;;;5050461;28;20075;-73
2022/08/25 03:15:41;;;;;;;0.20;0.20;;;;;;;;;;5050065;28;20051;-72
2022/08/25 03:18:07;;;;;;;0.40;0.40;;;;;;;;;;5050285;28;20074;-74
2022/08/25 03:20:34;;;;;;;0.45;0.45;;;;;;;;;;5049258;28;20485;-73
2022/08/25 03:23:01;;;;;;;0.30;0.30;;;;;;;;;;5032250;28;20166;-74
2022/08/25 03:28:12;;;;;;;0.22;0.22;;;;;;;;;;5049570;28;20029;-74
2022/08/25 03:30:37;;;;;;;0.20;0.20;;;;;;;;;;5049977;28;20036;-71
2022/08/25 03:33:03;;;;;;;1.95;1.85;;;;;;;;;;5049850;28;20029;-74
2022/08/25 03:35:29;;;;;;;6.65;6.13;;;;;;;;;;5049640;28;20017;-72
2022/08/25 03:37:55;;;;;;;0.20;0.20;;;;;;;;;;5049458;28;20033;-72
2022/08/25 03:40:22;;;;;;;0.30;0.30;;;;;;;;;;5049397;28;20106;-74
2022/08/25 03:42:47;;;;;;;0.57;0.45;;;;;;;;;;5015689;28;20033;-75
2022/08/25 03:45:15;;;;;;;0.10;0.10;;;;;;;;;;5049593;28;20124;-74
2022/08/25 03:47:41;;;;;;;0.22;0.22;;;;;;;;;;5049506;28;20043;-77
2022/08/25 03:50:09;;;;;;;3.72;2.40;;;;;;;;;;5049904;28;20439;-72
2022/08/25 03:52:35;;;;;;;0.20;0.20;;;;;;;;;;5049473;28;20029;-76
2022/08/25 03:55:02;;;;;;;0.20;0.20;;;;;;;;;;5049478;28;20031;-73
2022/08/25 03:57:28;;;;;;;0.20;0.20;;;;;;;;;;5032196;28;20025;-74
2022/08/25 03:59:54;;;;;;;0.28;0.28;;;;;;;;;;5049264;28;20033;-75
2022/08/25 04:02:20;;;;;;;0.20;0.20;;;;;;;;;;5048551;28;20036;-73
2022/08/25 04:04:45;;;;;;;0.30;0.30;;;;;;;;;;5049363;28;20044;-72
2022/08/25 04:07:11;;;;;;;0.50;0.50;;;;;;;;;;5049423;28;20025;-73
2022/08/25 04:09:38;;;;;;;0.35;0.35;;;;;;;;;;5049395;28;20487;-72
2022/08/25 04:12:04;;;;;;;1.10;1.00;;;;;;;;;;5030929;28;20037;-73
2022/08/25 04:14:30;;;;;;;0.52;0.52;;;;;;;;;;5031127;28;20476;-71
2022/08/25 04:16:56;;;;;;;0.63;0.60;;;;;;;;;;5049360;28;20027;-73
2022/08/25 04:19:21;;;;;;;0.40;0.40;;;;;;;;;;5031785;28;20040;-73
2022/08/25 04:21:48;;;;;;;0.20;0.20;;;;;;;;;;5049274;28;20033;-72
2022/08/25 04:24:13;;;;;;;0.20;0.20;;;;;;;;;;5031362;28;20082;-73
2022/08/25 04:26:41;;;;;;;0.25;0.25;;;;;;;;;;5048521;28;20029;-73
2022/08/25 04:29:08;;;;;;;0.20;0.20;;;;;;;;;;5030889;28;20572;-73
2022/08/25 04:31:34;;;;;;;0.32;0.32;;;;;;;;;;5049196;28;20028;-75
2022/08/25 04:34:03;;;;;;;0.20;0.20;;;;;;;;;;5031433;28;20032;-72
2022/08/25 04:36:29;;;;;;;0.60;0.60;;;;;;;;;;5031098;28;20025;-69
2022/08/25 04:38:55;;;;;;;0.20;0.20;;;;;;;;;;5048782;28;20029;-72
2022/08/25 04:41:22;;;;;;;0.20;0.20;;;;;;;;;;5048572;28;20079;-71
2022/08/25 04:43:48;;;;;;;0.20;0.20;;;;;;;;;;5031408;28;20045;-73
2022/08/25 04:46:16;;;;;;;0.20;0.20;;;;;;;;;;5031040;28;20025;-71
2022/08/25 04:48:42;;;;;;;0.22;0.22;;;;;;;;;;5049029;28;20021;-74
2022/08/25 04:51:09;;;;;;;0.20;0.20;;;;;;;;;;5052921;28;20215;-73
2022/08/25 04:53:35;;;;;;;0.30;0.30;;;;;;;;;;5052094;28;20464;-71
2022/08/25 04:56:04;;;;;;;0.20;0.20;;;;;;;;;;5053138;28;20036;-73
2022/08/25 04:58:30;;;;;;;0.20;0.20;;;;;;;;;;5057416;28;20021;-75
2022/08/25 05:01:07;;;;;;;0.40;0.40;;;;;;;;;;5035059;28;20435;-75
2022/08/25 05:03:33;;;;;;;0.30;0.30;;;;;;;;;;5034067;28;20087;-75
2022/08/25 05:05:59;;;;;;;0.20;0.20;;;;;;;;;;5052023;28;20025;-74
2022/08/25 05:08:26;;;;;;;0.20;0.20;;;;;;;;;;5052203;28;20495;-76
2022/08/25 05:10:53;;;;;;;1.60;1.50;;;;;;;;;;5052142;28;20379;-74
2022/08/25 05:13:19;;;;;;;0.20;0.20;;;;;;;;;;5033960;28;20548;-73
2022/08/25 05:15:56;;;;;;;0.20;0.20;;;;;;;;;;5051214;28;20025;-71
2022/08/25 05:18:23;;;;;;;0.20;0.20;;;;;;;;;;5016555;28;20040;-75
2022/08/25 05:20:50;;;;;;;0.25;0.25;;;;;;;;;;5017921;28;20032;-74
2022/08/25 05:23:16;;;;;;;0.20;0.20;;;;;;;;;;5052079;28;20037;-72
2022/08/25 05:25:43;;;;;;;0.30;0.30;;;;;;;;;;5050286;28;20032;-75
2022/08/25 05:28:09;;;;;;;0.20;0.20;;;;;;;;;;5053600;28;20033;-73
2022/08/25 05:30:39;;;;;;;0.20;0.20;;;;;;;;;;5053603;28;20528;-73
2022/08/25 05:33:05;;;;;;;0.15;0.15;;;;;;;;;;5071132;28;20032;-74
2022/08/25 05:35:30;;;;;;;0.20;0.20;;;;;;;;;;5053529;28;20078;-73
2022/08/25 05:37:56;;;;;;;0.25;0.25;;;;;;;;;;5043234;28;20092;-72
2022/08/25 05:40:23;;;;;;;0.20;0.20;;;;;;;;;;5050775;28;20460;-76
2022/08/25 05:42:49;;;;;;;0.20;0.20;;;;;;;;;;5051836;28;20036;-73
2022/08/25 05:45:14;;;;;;;0.20;0.20;;;;;;;;;;5052114;28;20029;-72
2022/08/25 05:47:40;;;;;;;0.20;0.20;;;;;;;;;;5051944;28;20039;-73
2022/08/25 05:50:07;;;;;;;0.20;0.20;;;;;;;;;;5052150;28;20427;-76
2022/08/25 05:52:33;;;;;;;0.20;0.20;;;;;;;;;;5051651;28;20055;-74
2022/08/25 05:54:58;;;;;;;0.20;0.20;;;;;;;;;;5050881;28;20040;-75
2022/08/25 05:57:24;;;;;;;0.20;0.20;;;;;;;;;;5033894;28;20072;-76
2022/08/25 05:59:49;;;;;;;0.20;0.20;;;;;;;;;;5051895;28;20033;-75
2022/08/25 06:04:59;;;;;;;0.22;0.22;;;;;;;;;;5031858;28;20079;-74
2022/08/25 06:07:24;;;;;;;0.20;0.20;;;;;;;;;;5037733;28;20029;-74
2022/08/25 06:09:50;;;;;;;0.20;0.20;;;;;;;;;;5050588;28;20032;-73
2022/08/25 06:12:17;;;;;;;0.13;0.13;;;;;;;;;;5051290;28;20033;-73
2022/08/25 06:14:43;;;;;;;0.40;0.40;;;;;;;;;;5049953;28;20118;-76
2022/08/25 06:17:09;;;;;;;1.40;1.40;;;;;;;;;;5048493;28;20072;-77
2022/08/25 06:19:35;;;;;;;0.30;0.30;;;;;;;;;;5049602;28;20029;-76
2022/08/25 06:22:01;;;;;;;0.30;0.30;;;;;;;;;;5049559;28;20029;-76
2022/08/25 06:24:27;;;;;;;0.30;0.30;;;;;;;;;;5048988;28;20025;-77
2022/08/25 06:26:53;;;;;;;0.20;0.20;;;;;;;;;;5049228;28;20765;-77
2022/08/25 06:29:19;;;;;;;0.20;0.20;;;;;;;;;;5049411;28;20261;-77
2022/08/25 06:31:45;;;;;;;0.20;0.20;;;;;;;;;;5049868;28;20037;-76
2022/08/25 06:34:11;;;;;;;0.20;0.20;;;;;;;;;;5049500;28;20525;-76
2022/08/25 06:36:36;;;;;;;0.30;0.30;;;;;;;;;;5048417;28;20032;-78
2022/08/25 06:39:02;;;;;;;0.20;0.20;;;;;;;;;;5048902;28;20430;-77
2022/08/25 06:41:28;;;;;;;0.30;0.30;;;;;;;;;;5049204;28;20063;-78
2022/08/25 06:43:56;;;;;;;0.20;0.20;;;;;;;;;;5033897;28;20051;-79
2022/08/25 06:46:25;;;;;;;0.25;0.25;;;;;;;;;;5051026;28;20476;-77
2022/08/25 06:48:51;;;;;;;0.35;0.35;;;;;;;;;;5050887;28;20029;-78
2022/08/25 06:51:18;;;;;;;0.20;0.20;;;;;;;;;;5050233;28;20031;-76
2022/08/25 06:53:45;;;;;;;0.30;0.30;;;;;;;;;;5049814;28;20024;-78
2022/08/25 06:56:11;;;;;;;0.47;0.47;;;;;;;;;;5050904;28;20029;-77
2022/08/25 06:58:37;;;;;;;0.20;0.20;;;;;;;;;;5050388;28;20112;-78
2022/08/25 07:01:30;;;;;;;0.30;0.30;;;;;;;;;;5050463;28;20036;-78
2022/08/25 07:03:56;;;;;;;0.40;0.40;;;;;;;;;;5046742;28;20039;-78
2022/08/25 07:06:22;;;;;;;0.30;0.30;;;;;;;;;;5049919;28;20364;-71
2022/08/25 07:08:48;;;;;;;0.30;0.30;;;;;;;;;;5050500;28;20495;-77
2022/08/25 07:11:14;;;;;;;0.30;0.30;;;;;;;;;;5050446;28;20044;-79
2022/08/25 07:13:40;;;;;;;0.40;0.40;;;;;;;;;;5050669;28;20341;-79
2022/08/25 07:16:06;;;;;;;0.38;0.38;;;;;;;;;;5049935;28;20036;-82
2022/08/25 07:18:32;;;;;;;0.30;0.30;;;;;;;;;;5036001;28;20022;-77
2022/08/25 07:20:58;;;;;;;0.30;0.30;;;;;;;;;;5029465;28;20037;-77
2022/08/25 07:23:24;;;;;;;0.40;0.40;;;;;;;;;;5028594;28;20439;-71
2022/08/25 07:25:49;;;;;;;0.30;0.30;;;;;;;;;;5029426;28;20025;-78
2022/08/25 07:28:15;;;;;;;0.30;0.30;;;;;;;;;;5012855;28;20535;-79
2022/08/25 07:30:41;;;;;;;0.40;0.40;;;;;;;;;;5029443;28;20500;-79
2022/08/25 07:33:07;;;;;;;0.30;0.30;;;;;;;;;;5030370;28;20026;-79
2022/08/25 07:35:32;;;;;;;0.40;0.40;;;;;;;;;;5011838;28;20179;-78
2022/08/25 07:37:59;;;;;;;0.40;0.40;;;;;;;;;;5027901;28;20029;-72
2022/08/25 07:40:26;;;;;;;0.30;0.30;;;;;;;;;;5027195;28;20411;-77
2022/08/25 07:42:53;;;;;;;0.30;0.30;;;;;;;;;;5028231;28;20087;-76
2022/08/25 07:45:28;;;;;;;0.30;0.30;;;;;;;;;;5010277;28;20049;-79
2022/08/25 07:47:54;;;;;;;0.30;0.30;;;;;;;;;;5027620;28;20164;-77
2022/08/25 07:50:20;;;;;;;0.30;0.30;;;;;;;;;;5027667;28;20132;-77
2022/08/25 07:52:46;;;;;;;0.40;0.40;;;;;;;;;;5029265;28;20476;-78
2022/08/25 07:55:12;;;;;;;1.23;1.10;;;;;;;;;;5029942;28;20025;-77
2022/08/25 07:57:41;;;;;;;0.40;0.40;;;;;;;;;;5012212;28;20025;-77
2022/08/25 08:00:06;;;;;;;;;;;;;;;;;;5012602;28;20033;-77
2022/08/25 08:02:37;;;;;;;0.40;0.40;;;;;;;;;;5029140;28;19960;-77
2022/08/25 08:05:03;;;;;;;0.40;0.40;;;;;;;;;;5029382;28;20088;-76
2022/08/25 08:07:30;;;;;;;0.40;0.40;;;;;;;;;;5011914;28;20026;-72
2022/08/25 08:09:56;;;;;;;0.30;0.30;;;;;;;;;;5040215;28;20032;-77
2022/08/25 08:12:22;;;;;;;0.40;0.40;;;;;;;;;;5051162;28;20036;-77
2022/08/25 08:14:48;;;;;;;0.50;0.50;;;;;;;;;;5069476;28;20399;-78
2022/08/25 08:17:13;;;;;;;0.32;0.32;;;;;;;;;;5069549;28;20021;-78
2022/08/25 08:19:39;;;;;;;0.40;0.40;;;;;;;;;;5069665;28;20016;-78
2022/08/25 08:22:05;;;;;;;0.30;0.30;;;;;;;;;;5051567;28;20049;-77
2022/08/25 08:24:31;;;;;;;0.30;0.30;;;;;;;;;;5069839;28;20035;-71
2022/08/25 08:26:57;;;;;;;0.80;0.55;;;;;;;;;;5073644;28;20021;-76
2022/08/25 08:29:23;;;;;;;0.57;0.57;;;;;;;;;;5062789;28;20025;-78
2022/08/25 08:31:48;;;;;;;0.40;0.40;;;;;;;;;;5030646;28;20265;-78
2022/08/25 08:34:14;;;;;;;0.38;0.38;;;;;;;;;;5050515;28;20029;-76
2022/08/25 08:36:39;;;;;;;0.40;0.40;;;;;;;;;;5031376;28;20044;-76
2022/08/25 08:39:05;;;;;;;0.50;0.50;;;;;;;;;;5046414;28;20480;-80
2022/08/25 08:44:21;;;;;;;0.50;0.50;;;;;;;;;;5047928;28;20029;-79
2022/08/25 08:46:52;;;;;;;0.43;0.43;;;;;;;;;;5050363;28;20055;-78
2022/08/25 08:49:24;;;;;;;0.30;0.30;;;;;;;;;;5033401;28;20440;-76
2022/08/25 08:51:56;;;;;;;0.30;0.30;;;;;;;;;;5015352;28;20112;-75
2022/08/25 08:54:24;;;;;;;0.50;0.50;;;;;;;;;;5015320;28;20041;-72
2022/08/25 08:57:03;;;;;;;2.63;2.40;;;;;;;;;;5048107;28;20028;-76
2022/08/25 08:59:28;;;;;;;;;;;;;;;;;;5048427;28;20649;-79
2022/08/25 09:01:58;;;;;;;0.40;0.40;;;;;;;;;;5047969;28;19928;-74
2022/08/25 09:04:32;;;;;;;0.57;0.57;;;;;;;;;;5049413;28;20526;-79
2022/08/25 09:06:58;;;;;;;0.40;0.40;;;;;;;;;;5051184;28;20027;-77
2022/08/25 09:09:26;;;;;;;1.25;1.15;;;;;;;;;;5035555;28;20480;-78
2022/08/25 09:11:55;;;;;;;0.35;0.35;;;;;;;;;;5058383;28;20249;-77
2022/08/25 09:14:26;;;;;;;0.30;0.30;;;;;;;;;;5058729;28;20028;-76
2022/08/25 09:16:59;;;;;;;0.85;0.85;;;;;;;;;;5060641;28;20400;-73
2022/08/25 09:19:43;;;;;;;0.40;0.40;;;;;;;;;;5046657;28;20025;-75
2022/08/25 09:22:45;;;;;;;0.57;0.57;;;;;;;;;;5064870;28;20060;-74
2022/08/25 09:25:36;;;;;;;0.63;0.63;;;;;;;;;;4957531;29;20147;-78
2022/08/25 09:28:20;;;;;;;0.30;0.30;;;;;;;;;;5037656;28;20072;-77
2022/08/25 09:30:56;;;;;;;0.40;0.40;;;;;;;;;;5049332;28;20108;-74
2022/08/25 09:33:23;;;;;;;0.30;0.30;;;;;;;;;;5049255;28;20064;-76
2022/08/25 09:35:49;;;;;;;0.40;0.40;;;;;;;;;;5049482;28;20542;-75
2022/08/25 09:38:15;;;;;;;0.80;0.80;;;;;;;;;;5048620;28;20048;-77
2022/08/25 09:40:46;;;;;;;1.02;0.85;;;;;;;;;;5049284;28;20049;-79
2022/08/25 09:43:40;;;;;;;0.40;0.40;;;;;;;;;;5049607;28;20270;-73
2022/08/25 09:46:15;;;;;;;0.30;0.30;;;;;;;;;;5028779;28;20080;-75
2022/08/25 09:48:58;;;;;;;0.47;0.47;;;;;;;;;;5032925;28;20040;-73
2022/08/25 09:51:27;;;;;;;1.08;0.63;;;;;;;;;;5050040;28;20108;-76
2022/08/25 09:54:01;;;;;;;0.77;0.65;;;;;;;;;;5032023;28;20515;-73
2022/08/25 09:56:30;;;;;;;5.25;1.00;;;;;;;;;;5050409;28;20033;-78
2022/08/25 09:58:56;;;;;;;1.13;1.00;;;;;;;;;;5033496;28;20029;-76
2022/08/25 10:01:22;;;;;;;1.23;0.52;;;;;;;;;;5033069;28;20817;-76
2022/08/25 10:03:53;;;;;;;0.82;0.80;;;;;;;;;;5049667;28;20116;-75
2022/08/25 10:06:20;;;;;;;0.30;0.30;;;;;;;;;;5049306;28;20618;-74
2022/08/25 10:08:45;;;;;;;1.23;0.50;;;;;;;;;;5049189;28;20035;-76
2022/08/25 10:11:14;;;;;;;0.50;0.50;;;;;;;;;;5048710;28;20029;-73
2022/08/25 10:13:39;;;;;;;0.50;0.50;;;;;;;;;;5015775;28;20036;-75
2022/08/25 10:16:07;;;;;;;0.52;0.50;;;;;;;;;;5049832;28;20267;-72
2022/08/25 10:18:32;;;;;;;0.30;0.30;;;;;;;;;;5051002;28;20041;-71
2022/08/25 10:21:01;;;;;;;0.50;0.50;;;;;;;;;;5051168;28;20508;-76
2022/08/25 10:23:26;;;;;;;0.40;0.40;;;;;;;;;;5050980;28;20132;-74
2022/08/25 10:25:52;;;;;;;0.55;0.55;;;;;;;;;;5050989;28;20044;-78
2022/08/25 10:28:30;;;;;;;0.40;0.40;;;;;;;;;;5051499;28;20029;-76
2022/08/25 10:30:55;;;;;;;0.77;0.68;;;;;;;;;;5051197;28;20036;-76
2022/08/25 10:33:31;;;;;;;0.40;0.40;;;;;;;;;;5050793;28;20043;-77
2022/08/25 10:36:10;;;;;;;0.60;0.60;;;;;;;;;;5051184;28;20078;-78
2022/08/25 10:38:39;;;;;;;0.80;0.80;;;;;;;;;;5051005;28;20116;-77
2022/08/25 10:41:08;;;;;;;0.45;0.45;;;;;;;;;;5050461;28;20547;-78
2022/08/25 10:43:45;;;;;;;0.45;0.45;;;;;;;;;;5050657;28;20033;-77
2022/08/25 10:46:28;;;;;;;0.50;0.50;;;;;;;;;;5051131;28;20053;-75
2022/08/25 10:48:59;;;;;;;0.73;0.57;;;;;;;;;;5050605;28;20431;-78
2022/08/25 10:51:34;;;;;;;0.32;0.32;;;;;;;;;;5050071;28;20556;-78
2022/08/25 10:54:02;;;;;;;0.50;0.50;;;;;;;;;;5033430;28;20036;-77
2022/08/25 10:56:32;;;;;;;0.70;0.70;;;;;;;;;;5049909;28;20910;-77
2022/08/25 10:58:58;;;;;;;0.55;0.55;;;;;;;;;;5033302;28;20037;-78
2022/08/25 11:01:40;;;;;;;0.47;0.47;;;;;;;;;;5050384;28;20033;-75
2022/08/25 11:04:13;;;;;;;1.27;0.82;;;;;;;;;;5050684;28;20032;-77
2022/08/25 11:06:51;;;;;;;0.77;0.77;;;;;;;;;;5049810;28;20048;-78
2022/08/25 11:09:18;;;;;;;0.37;0.37;;;;;;;;;;5051016;28;20033;-76
2022/08/25 11:11:48;;;;;;;1.10;1.10;;;;;;;;;;5050463;28;20037;-78
2022/08/25 11:14:23;;;;;;;0.40;0.40;;;;;;;;;;5032611;28;20111;-75
2022/08/25 11:16:49;;;;;;;0.60;0.60;;;;;;;;;;5050012;28;20253;-76
2022/08/25 11:19:19;;;;;;;1.08;1.02;;;;;;;;;;5050666;28;20017;-76
2022/08/25 11:21:47;;;;;;;0.40;0.40;;;;;;;;;;5050645;28;20045;-79
2022/08/25 11:24:13;;;;;;;0.60;0.60;;;;;;;;;;5032716;28;20024;-77
2022/08/25 11:26:41;;;;;;;0.52;0.52;;;;;;;;;;5032115;28;20035;-75
2022/08/25 11:29:17;;;;;;;0.63;0.63;;;;;;;;;;5031509;28;20472;-78
2022/08/25 11:31:44;;;;;;;1.33;1.05;;;;;;;;;;5040915;28;20280;-77
2022/08/25 11:34:13;;;;;;;1.05;0.95;;;;;;;;;;5041346;28;20156;-76
2022/08/25 11:36:40;;;;;;;0.50;0.50;;;;;;;;;;5031521;28;20444;-78
2022/08/25 11:39:14;;;;;;;0.98;0.88;;;;;;;;;;5022146;28;20059;-76
2022/08/25 11:41:52;;;;;;;0.60;0.60;;;;;;;;;;5029283;28;20550;-79
2022/08/25 11:44:39;;;;;;;0.40;0.40;;;;;;;;;;5050122;28;20028;-77
2022/08/25 11:47:19;;;;;;;0.93;0.63;;;;;;;;;;5049984;28;20035;-72
2022/08/25 11:49:50;;;;;;;5.10;1.30;;;;;;;;;;5049894;28;20044;-80
2022/08/25 11:52:37;;;;;;;0.65;0.63;;;;;;;;;;5029138;28;20031;-79
2022/08/25 11:55:09;;;;;;;0.55;0.55;;;;;;;;;;5049897;28;20033;-81
2022/08/25 11:57:35;;;;;;;0.82;0.82;;;;;;;;;;5049259;28;20376;-81
2022/08/25 12:00:08;;;;;;;0.73;0.70;;;;;;;;;;5048851;28;20090;-79
2022/08/25 12:02:37;;;;;;;0.80;0.80;;;;;;;;;;5049204;28;20044;-79
2022/08/25 12:05:05;;;;;;;1.83;1.13;;;;;;;;;;5046187;28;20064;-78
2022/08/25 12:07:48;;;;;;;1.08;0.98;;;;;;;;;;5031206;28;20392;-78
2022/08/25 12:10:22;;;;;;;0.45;0.45;;;;;;;;;;5049400;28;20539;-75
2022/08/25 12:12:47;;;;;;;4.90;0.70;;;;;;;;;;5049644;28;20067;-78
2022/08/25 12:15:29;;;;;;;0.98;0.80;;;;;;;;;;5049546;28;20029;-80
2022/08/25 12:18:08;;;;;;;0.47;0.47;;;;;;;;;;5049397;28;20044;-79
2022/08/25 12:20:51;;;;;;;0.53;0.53;;;;;;;;;;5048637;28;20036;-80
2022/08/25 12:23:26;;;;;;;0.75;0.75;;;;;;;;;;5049677;28;20017;-78
2022/08/25 12:25:52;;;;;;;4.25;1.02;;;;;;;;;;5031568;28;20044;-80
2022/08/25 12:28:27;;;;;;;1.48;0.93;;;;;;;;;;5049189;28;20017;-72
2022/08/25 12:30:56;;;;;;;2.90;1.33;;;;;;;;;;5049143;28;20373;-80
2022/08/25 12:33:36;;;;;;;0.50;0.50;;;;;;;;;;5049575;28;20075;-80
2022/08/25 12:36:03;;;;;;;1.15;0.90;;;;;;;;;;5031756;28;20438;-80
2022/08/25 12:38:31;;;;;;;1.05;0.90;;;;;;;;;;5049540;28;20028;-79
2022/08/25 12:41:17;;;;;;;1.98;1.30;;;;;;;;;;5047173;28;20459;-81
2022/08/25 12:43:44;;;;;;;0.40;0.40;;;;;;;;;;5049276;28;20029;-76
2022/08/25 12:46:22;;;;;;;2.42;1.08;;;;;;;;;;5046910;28;20028;-79
2022/08/25 12:48:56;;;;;;;0.60;0.60;;;;;;;;;;5048783;28;20013;-81
2022/08/25 12:51:34;;;;;;;0.50;0.50;;;;;;;;;;5045197;28;20029;-81
2022/08/25 12:54:20;;;;;;;0.55;0.55;;;;;;;;;;5050140;28;20044;-81
2022/08/25 12:56:59;;;;;;;2.15;0.73;;;;;;;;;;5031929;28;20537;-77
2022/08/25 12:59:38;;;;;;;1.83;1.30;;;;;;;;;;5049891;28;20029;-79
2022/08/25 13:02:03;;;;;;;1.05;0.82;;;;;;;;;;5029050;28;20048;-81
2022/08/25 13:04:29;;;;;;;0.60;0.60;;;;;;;;;;5028643;28;20025;-79
2022/08/25 13:07:03;;;;;;;1.58;1.10;;;;;;;;;;5036571;28;20036;-79
2022/08/25 13:09:47;;;;;;;1.08;0.90;;;;;;;;;;5029008;28;20083;-81
2022/08/25 13:12:48;;;;;;;0.77;0.77;;;;;;;;;;5024365;28;20032;-79
2022/08/25 13:15:23;;;;;;;0.45;0.45;;;;;;;;;;4985912;28;20034;-80
2022/08/25 13:17:49;;;;;;;1.77;0.95;;;;;;;;;;5039943;28;20045;-81
2022/08/25 13:20:22;;;;;;;2.88;1.00;;;;;;;;;;5052175;28;20032;-80
2022/08/25 13:22:49;;;;;;;0.40;0.40;;;;;;;;;;5052001;28;20559;-81
2022/08/25 13:25:19;;;;;;;1.23;0.80;;;;;;;;;;5051175;28;20497;-76
2022/08/25 13:27:57;;;;;;;0.38;0.38;;;;;;;;;;5016248;28;20036;-79
2022/08/25 13:30:27;;;;;;;0.50;0.50;;;;;;;;;;5049692;28;20433;-76
2022/08/25 13:32:53;;;;;;;0.70;0.70;;;;;;;;;;5050055;28;20025;-80
2022/08/25 13:35:23;;;;;;;0.30;0.30;;;;;;;;;;5050357;28;20460;-78
2022/08/25 13:37:49;;;;;;;0.40;0.40;;;;;;;;;;5049904;28;20033;-81
2022/08/25 13:40:21;;;;;;;0.77;0.65;;;;;;;;;;5032787;28;20060;-81
2022/08/25 13:42:48;;;;;;;1.20;0.98;;;;;;;;;;5052541;28;20100;-72
2022/08/25 13:45:18;;;;;;;1.38;1.27;;;;;;;;;;5073113;28;20021;-73
2022/08/25 13:47:44;;;;;;;1.00;0.88;;;;;;;;;;5071998;28;20105;-74
2022/08/25 13:50:21;;;;;;;0.80;0.80;;;;;;;;;;5067932;28;20067;-77
2022/08/25 13:52:48;;;;;;;1.90;1.08;;;;;;;;;;5047905;28;20067;-77
2022/08/25 13:55:19;;;;;;;0.40;0.40;;;;;;;;;;5061500;28;20021;-78
2022/08/25 13:57:44;;;;;;;1.30;0.98;;;;;;;;;;5031009;28;20029;-78
2022/08/25 14:00:10;;;;;;;1.98;1.25;;;;;;;;;;5049592;28;20043;-79
2022/08/25 14:02:43;;;;;;;0.32;0.32;;;;;;;;;;5048929;28;20048;-78
2022/08/25 14:05:10;;;;;;;0.38;0.38;;;;;;;;;;5050617;28;20025;-82
2022/08/25 14:07:36;;;;;;;0.50;0.50;;;;;;;;;;5050446;28;20029;-81
2022/08/25 14:10:01;;;;;;;1.70;1.08;;;;;;;;;;5049661;28;20036;-73
2022/08/25 14:12:36;;;;;;;2.03;1.75;;;;;;;;;;5049282;28;20060;-79
2022/08/25 14:15:04;;;;;;;0.50;0.50;;;;;;;;;;5048770;28;20099;-80
2022/08/25 14:17:30;;;;;;;1.85;1.17;;;;;;;;;;5030324;28;20116;-75
2022/08/25 14:19:56;;;;;;;0.98;0.93;;;;;;;;;;5029580;28;20112;-78
2022/08/25 14:22:21;;;;;;;7.00;1.20;;;;;;;;;;5012135;28;20477;-78
2022/08/25 14:24:47;;;;;;;1.13;0.85;;;;;;;;;;5046902;28;20111;-80
2022/08/25 14:27:12;;;;;;;0.40;0.40;;;;;;;;;;5028647;28;20500;-77
2022/08/25 14:29:38;;;;;;;0.98;0.98;;;;;;;;;;5047248;28;20025;-79
2022/08/25 14:32:03;;;;;;;1.48;1.17;;;;;;;;;;5048332;28;20110;-79
2022/08/25 14:34:32;;;;;;;0.50;0.50;;;;;;;;;;5048167;28;20021;-78
2022/08/25 14:36:58;;;;;;;0.70;0.70;;;;;;;;;;5048455;28;20033;-79
2022/08/25 14:39:24;;;;;;;0.63;0.57;;;;;;;;;;5046577;28;20040;-79
2022/08/25 14:41:50;;;;;;;0.70;0.65;;;;;;;;;;5048311;28;20833;-76
2022/08/25 14:44:15;;;;;;;0.55;0.52;;;;;;;;;;5047849;28;20031;-73
2022/08/25 14:46:47;;;;;;;2.58;1.08;;;;;;;;;;5048774;28;20041;-80
2022/08/25 14:49:18;;;;;;;1.10;0.50;;;;;;;;;;5029910;28;20037;-79
2022/08/25 14:51:43;;;;;;;0.40;0.40;;;;;;;;;;5048017;28;20045;-75
2022/08/25 14:54:10;;;;;;;0.85;0.70;;;;;;;;;;5048382;28;20021;-79
2022/08/25 14:56:35;;;;;;;1.35;1.10;;;;;;;;;;5030361;28;20483;-77
2022/08/25 14:59:01;;;;;;;2.00;1.27;;;;;;;;;;5042992;28;20025;-76
2022/08/25 15:01:28;;;;;;;0.73;0.73;;;;;;;;;;5039572;28;20032;-80